Sunday, November 18, 2018, 2:23 PM GMT
Back to Local

CWJB, Ste Foy CS , Que.

Location: , , Canada Lat: 47.3
Local Time: 2:23 PM GMT (14:23 GMT) Lon: -71.267
Time Zone: GMT Elev: 298 ft

Show me the last for .
Show Coded

Time T Td Feel RH Dir Speed Gust Alt SLP Vis Weather Sky Remarks
2018-11-18 14:00 17 9 10 69 220° 5 - - - 0 None
2018-11-18 13:00 16 8 8 70 210° 5 - - - 0 None
2018-11-18 12:00 16 8 8 71 190° 5 - - - 0 None
2018-11-18 11:00 16 11 8 80 210° 6 - - - 0 None
2018-11-18 10:00 19 11 - 72 200° 2 - - - 0 None
2018-11-18 09:00 19 12 12 74 210° 5 - - - 0 None
2018-11-18 08:00 19 13 12 76 210° 5 - - - 0 None
2018-11-18 07:00 19 13 9 75 220° 8 - - - 0 None
2018-11-18 06:00 20 13 13 73 210° 6 - - - 0 None
2018-11-18 05:00 20 14 13 74 210° 6 - - - 0 None
2018-11-18 04:00 22 14 18 69 330° 3 - - - 0 None
2018-11-18 03:00 23 16 18 74 200° 3 - - - 0 None
2018-11-18 02:00 23 18 - 80 200° 2 - - - 0 None
2018-11-18 01:00 25 20 21 79 210° 3 - - - 0 None
2018-11-18 00:00 26 20 22 77 200° 3 - - - 0 None
2018-11-17 23:00 28 21 23 73 210° 5 - - - 0 None
2018-11-17 22:00 29 22 25 73 210° 5 - - - 0 None
2018-11-17 21:00 31 26 26 80 210° 5 - - - 0 None
2018-11-17 20:00 32 27 25 81 220° 8 - - - 0 None
2018-11-17 19:00 32 26 20 80 210° 8 17 - - 0 None
2018-11-17 18:00 31 26 24 83 210° 7 - - - 0 None
2018-11-17 17:00 30 26 22 84 210° 9 - - - 0 1-hr Precip Total: 0.04"
2018-11-17 16:00 29 26 21 88 220° 8 - - - 0 None
2018-11-17 15:00 27 26 18 94 220° 9 - - - 0 None

Support USWX by starting your Amazon purchase here.